Time;durP1;ratioP1;P1;durP2;ratioP2;P2;SDS_P1;SDS_P2;PMS_P1;PMS_P2;Temp;Humidity;BMP_temperature;BMP_pressure;BME280_temperature;BME280_humidity;BME280_pressure;Samples;Min_cycle;Max_cycle;Signal;HPM_P1;HPM_P2
2023/04/03 00:03:34;;;;;;;16.50;6.67;;;;;;;;;;10559172;28;20126;-82
2023/04/03 00:08:35;;;;;;;14.53;6.90;;;;;;;;;;10570564;28;20092;-86
2023/04/03 00:13:37;;;;;;;12.00;6.73;;;;;;;;;;10557394;28;20027;-83
2023/04/03 00:18:40;;;;;;;12.67;6.47;;;;;;;;;;10569328;28;20038;-85
2023/04/03 00:23:41;;;;;;;11.90;6.83;;;;;;;;;;10570473;28;20027;-84
2023/04/03 00:28:42;;;;;;;15.97;7.87;;;;;;;;;;10542150;28;20125;-85
2023/04/03 00:33:44;;;;;;;14.53;7.93;;;;;;;;;;10537425;28;20540;-84
2023/04/03 00:38:45;;;;;;;17.90;10.20;;;;;;;;;;10556319;28;20024;-85
2023/04/03 00:43:46;;;;;;;23.63;11.73;;;;;;;;;;10546246;28;20495;-84
2023/04/03 00:48:52;;;;;;;28.47;13.07;;;;;;;;;;10537415;28;20048;-85
2023/04/03 00:53:57;;;;;;;33.05;14.65;;;;;;;;;;10545297;28;20059;-83
2023/04/03 00:59:13;;;;;;;28.63;14.13;;;;;;;;;;10550998;28;20019;-85
2023/04/03 01:04:49;;;;;;;33.88;15.10;;;;;;;;;;10569699;28;20032;-84
2023/04/03 01:09:55;;;;;;;26.38;14.05;;;;;;;;;;10460060;28;20520;-85
2023/04/03 01:15:07;;;;;;;31.13;14.88;;;;;;;;;;10543904;28;20410;-84
2023/04/03 01:20:24;;;;;;;31.20;15.07;;;;;;;;;;10570953;28;20028;-84
2023/04/03 01:25:25;;;;;;;35.03;16.47;;;;;;;;;;10553536;28;20101;-85
2023/04/03 01:30:32;;;;;;;33.37;16.00;;;;;;;;;;10549966;28;20084;-85
2023/04/03 01:35:34;;;;;;;36.97;16.30;;;;;;;;;;10575238;28;20028;-83
2023/04/03 01:40:37;;;;;;;29.03;13.13;;;;;;;;;;10576108;28;20406;-85
2023/04/03 01:45:38;;;;;;;30.07;13.80;;;;;;;;;;10540849;28;20048;-85
2023/04/03 01:50:39;;;;;;;32.37;13.77;;;;;;;;;;10572576;28;20700;-84
2023/04/03 01:55:43;;;;;;;21.90;11.10;;;;;;;;;;10541962;28;20051;-85
2023/04/03 02:00:48;;;;;;;22.40;10.33;;;;;;;;;;10563841;28;20027;-84
2023/04/03 02:05:51;;;;;;;21.10;10.23;;;;;;;;;;10545467;28;20047;-81
2023/04/03 02:10:54;;;;;;;20.17;10.47;;;;;;;;;;10560576;28;20031;-83
2023/04/03 02:15:55;;;;;;;19.03;9.33;;;;;;;;;;10560132;28;20030;-83
2023/04/03 02:20:56;;;;;;;21.50;10.80;;;;;;;;;;10556831;28;20038;-83
2023/04/03 02:26:05;;;;;;;20.70;9.50;;;;;;;;;;10557906;28;20870;-85
2023/04/03 02:31:08;;;;;;;27.03;12.00;;;;;;;;;;10549104;28;20116;-83
2023/04/03 02:36:09;;;;;;;26.43;12.60;;;;;;;;;;10558728;28;20478;-84
2023/04/03 02:41:11;;;;;;;26.83;12.43;;;;;;;;;;10555179;28;20032;-84
2023/04/03 02:46:14;;;;;;;26.93;13.00;;;;;;;;;;10553915;28;20031;-83
2023/04/03 02:51:15;;;;;;;26.47;12.07;;;;;;;;;;10566145;28;20707;-85
2023/04/03 02:56:19;;;;;;;23.87;11.07;;;;;;;;;;10547655;28;20101;-86
2023/04/03 03:01:20;;;;;;;25.57;11.97;;;;;;;;;;10523313;28;20032;-84
2023/04/03 03:06:21;;;;;;;23.80;11.00;;;;;;;;;;10542468;28;20041;-83
2023/04/03 03:11:22;;;;;;;23.13;9.00;;;;;;;;;;10557078;28;20032;-83
2023/04/03 03:16:25;;;;;;;22.07;9.07;;;;;;;;;;10559867;28;20024;-84
2023/04/03 03:21:28;;;;;;;13.10;6.70;;;;;;;;;;10559842;28;20039;-83
2023/04/03 03:26:29;;;;;;;19.57;6.83;;;;;;;;;;10557791;28;20039;-83
2023/04/03 03:31:30;;;;;;;15.77;6.97;;;;;;;;;;10558843;28;20027;-82
2023/04/03 03:36:31;;;;;;;13.97;6.93;;;;;;;;;;10563299;28;20027;-82
2023/04/03 03:41:36;;;;;;;16.50;7.07;;;;;;;;;;10547303;28;20032;-82
2023/04/03 03:46:41;;;;;;;13.77;6.73;;;;;;;;;;10551015;28;20067;-83
2023/04/03 03:51:42;;;;;;;13.80;5.87;;;;;;;;;;10527893;28;20132;-82
2023/04/03 03:56:43;;;;;;;14.07;5.53;;;;;;;;;;10533095;28;20075;-82
2023/04/03 04:01:44;;;;;;;14.23;5.23;;;;;;;;;;10526101;28;20036;-83
2023/04/03 04:06:46;;;;;;;16.97;6.80;;;;;;;;;;10550983;28;20387;-81
2023/04/03 04:11:47;;;;;;;18.30;6.20;;;;;;;;;;10543723;28;20046;-83
2023/04/03 04:16:50;;;;;;;15.47;6.10;;;;;;;;;;10528099;28;20043;-83
2023/04/03 04:21:53;;;;;;;15.07;6.30;;;;;;;;;;10516046;28;20478;-84
2023/04/03 04:26:54;;;;;;;13.70;6.20;;;;;;;;;;10523374;28;20052;-84
2023/04/03 04:31:56;;;;;;;13.07;5.70;;;;;;;;;;10521050;28;20035;-84
2023/04/03 04:36:57;;;;;;;15.87;5.93;;;;;;;;;;10529166;28;20035;-86
2023/04/03 04:41:58;;;;;;;12.23;5.60;;;;;;;;;;10555730;28;20034;-84
2023/04/03 04:46:59;;;;;;;14.93;5.50;;;;;;;;;;10550320;28;20530;-87
2023/04/03 04:52:00;;;;;;;13.53;5.60;;;;;;;;;;10529037;28;20146;-87
2023/04/03 04:57:01;;;;;;;11.13;5.63;;;;;;;;;;10568541;28;20052;-86
2023/04/03 05:02:02;;;;;;;12.53;5.10;;;;;;;;;;10530451;28;20029;-88
2023/04/03 05:07:03;;;;;;;9.93;5.13;;;;;;;;;;10542827;28;20012;-89
2023/04/03 05:12:04;;;;;;;11.40;5.63;;;;;;;;;;10548255;28;20212;-87
2023/04/03 05:17:05;;;;;;;15.23;5.23;;;;;;;;;;10514885;28;20075;-86
2023/04/03 05:22:06;;;;;;;11.87;5.10;;;;;;;;;;10531741;28;20027;-87
2023/04/03 05:27:07;;;;;;;12.87;4.80;;;;;;;;;;10561827;28;20039;-87
2023/04/03 05:32:09;;;;;;;8.77;4.90;;;;;;;;;;10555805;28;20027;-87
2023/04/03 05:37:10;;;;;;;10.13;4.67;;;;;;;;;;10562928;28;20043;-86
2023/04/03 05:42:11;;;;;;;9.63;4.40;;;;;;;;;;10556858;28;20398;-88
2023/04/03 05:47:12;;;;;;;8.93;4.63;;;;;;;;;;10507955;28;20161;-86
2023/04/03 05:52:20;;;;;;;8.73;4.40;;;;;;;;;;10514447;28;20201;-88
2023/04/03 05:57:21;;;;;;;7.60;3.80;;;;;;;;;;10528971;28;20058;-87
2023/04/03 06:02:26;;;;;;;10.60;4.43;;;;;;;;;;10558693;28;20062;-87
2023/04/03 06:07:29;;;;;;;13.10;4.83;;;;;;;;;;10567625;28;20737;-88
2023/04/03 06:12:31;;;;;;;16.40;4.90;;;;;;;;;;10559335;28;20488;-88
2023/04/03 06:17:31;;;;;;;11.33;4.63;;;;;;;;;;10557709;28;20031;-88
2023/04/03 06:22:32;;;;;;;13.30;6.10;;;;;;;;;;10559232;28;20036;-89
2023/04/03 06:27:34;;;;;;;10.27;5.47;;;;;;;;;;10552033;28;20051;-86
2023/04/03 06:32:35;;;;;;;8.23;3.83;;;;;;;;;;10538255;28;20678;-87
2023/04/03 06:37:36;;;;;;;8.97;5.07;;;;;;;;;;10509299;28;20067;-86
2023/04/03 06:42:37;;;;;;;11.37;5.17;;;;;;;;;;10527452;28;20059;-86
2023/04/03 06:47:38;;;;;;;15.33;5.50;;;;;;;;;;10515309;28;20076;-86
2023/04/03 06:52:39;;;;;;;8.57;4.27;;;;;;;;;;10526631;28;20671;-86
2023/04/03 06:57:40;;;;;;;16.63;5.43;;;;;;;;;;10551963;28;20503;-88
2023/04/03 07:02:41;;;;;;;9.50;4.43;;;;;;;;;;10534102;28;20043;-89
2023/04/03 07:07:42;;;;;;;12.87;4.27;;;;;;;;;;10563996;28;20418;-87
2023/04/03 07:12:43;;;;;;;8.50;4.13;;;;;;;;;;10566343;28;20394;-88
2023/04/03 07:17:47;;;;;;;13.50;4.20;;;;;;;;;;10554801;28;20027;-87
2023/04/03 07:22:48;;;;;;;6.23;3.30;;;;;;;;;;10536282;28;20380;-87
2023/04/03 07:27:50;;;;;;;12.33;5.57;;;;;;;;;;10520678;28;20044;-87
2023/04/03 07:32:51;;;;;;;10.67;4.27;;;;;;;;;;10522907;28;20038;-88
2023/04/03 07:37:53;;;;;;;5.73;3.33;;;;;;;;;;10516166;28;20032;-87
2023/04/03 07:42:56;;;;;;;8.93;3.13;;;;;;;;;;10558945;28;20379;-87
2023/04/03 07:47:57;;;;;;;7.80;4.23;;;;;;;;;;10544179;28;20051;-87
2023/04/03 07:52:58;;;;;;;12.10;3.87;;;;;;;;;;10565232;28;20043;-87
2023/04/03 07:57:59;;;;;;;7.10;3.30;;;;;;;;;;10561106;28;20138;-88
2023/04/03 08:03:00;;;;;;;10.13;3.90;;;;;;;;;;10552262;28;20172;-89
2023/04/03 08:08:01;;;;;;;9.70;3.77;;;;;;;;;;10557968;28;20042;-88
2023/04/03 08:13:02;;;;;;;9.57;3.67;;;;;;;;;;10570262;28;20024;-87
2023/04/03 08:18:04;;;;;;;10.47;3.93;;;;;;;;;;10553630;28;20569;-88
2023/04/03 08:23:05;;;;;;;7.93;3.43;;;;;;;;;;10553623;28;20032;-89
2023/04/03 08:28:07;;;;;;;8.70;4.40;;;;;;;;;;10510228;28;20393;-87
2023/04/03 08:33:08;;;;;;;9.33;4.03;;;;;;;;;;10516752;28;20034;-88
2023/04/03 08:38:10;;;;;;;9.40;3.20;;;;;;;;;;10514288;28;20040;-86
2023/04/03 08:43:12;;;;;;;9.00;3.27;;;;;;;;;;10532830;28;20063;-87
2023/04/03 08:48:13;;;;;;;15.23;4.17;;;;;;;;;;10544150;28;20101;-88
2023/04/03 08:53:22;;;;;;;10.17;2.93;;;;;;;;;;10545673;28;20725;-86
2023/04/03 08:58:25;;;;;;;5.20;2.60;;;;;;;;;;10556591;28;20085;-87
2023/04/03 09:03:29;;;;;;;8.23;3.47;;;;;;;;;;10527711;28;20028;-85
2023/04/03 09:08:33;;;;;;;8.40;3.00;;;;;;;;;;10505060;28;20499;-84
2023/04/03 09:13:38;;;;;;;4.27;2.30;;;;;;;;;;10517813;28;20031;-84
2023/04/03 09:18:42;;;;;;;4.80;2.17;;;;;;;;;;10528511;28;20096;-84
2023/04/03 09:23:51;;;;;;;9.07;2.47;;;;;;;;;;10514791;28;20967;-84
2023/04/03 09:28:54;;;;;;;4.67;1.97;;;;;;;;;;10523173;28;20485;-87
2023/04/03 09:34:08;;;;;;;5.73;3.10;;;;;;;;;;10527621;28;20028;-85
2023/04/03 09:39:14;;;;;;;5.87;2.27;;;;;;;;;;10532964;28;20020;-86
2023/04/03 09:44:15;;;;;;;;;;;;;;;;;;10532348;28;20032;-85
2023/04/03 09:49:17;;;;;;;6.87;1.77;;;;;;;;;;10533819;28;20581;-87
2023/04/03 09:54:30;;;;;;;7.47;2.37;;;;;;;;;;10533111;28;20490;-84
2023/04/03 09:59:32;;;;;;;6.63;1.93;;;;;;;;;;10528109;28;20422;-84
2023/04/03 10:04:42;;;;;;;3.67;1.70;;;;;;;;;;10531494;28;20100;-83
2023/04/03 10:09:54;;;;;;;6.00;2.63;;;;;;;;;;10527878;28;20044;-87
2023/04/03 10:14:56;;;;;;;3.23;1.67;;;;;;;;;;10540573;28;20509;-88
2023/04/03 10:20:04;;;;;;;4.53;2.03;;;;;;;;;;10566860;28;20737;-85
2023/04/03 10:25:10;;;;;;;4.27;2.20;;;;;;;;;;10571543;28;20028;-84
2023/04/03 10:30:17;;;;;;;5.47;2.30;;;;;;;;;;10557713;28;20471;-84
2023/04/03 10:35:37;;;;;;;4.40;2.07;;;;;;;;;;10548792;28;20054;-85
2023/04/03 10:40:47;;;;;;;4.60;1.77;;;;;;;;;;10542480;28;20032;-87
2023/04/03 10:45:54;;;;;;;6.23;2.00;;;;;;;;;;10517703;28;20081;-86
2023/04/03 10:51:14;;;;;;;3.13;1.90;;;;;;;;;;10564969;28;20063;-85
2023/04/03 10:56:31;;;;;;;6.63;2.40;;;;;;;;;;10563916;28;20054;-84
2023/04/03 11:01:38;;;;;;;3.47;1.90;;;;;;;;;;10556221;28;20080;-84
2023/04/03 11:06:42;;;;;;;6.57;2.40;;;;;;;;;;10563207;28;20040;-86
2023/04/03 11:11:43;;;;;;;2.83;1.93;;;;;;;;;;10565419;28;20038;-87
2023/04/03 11:16:47;;;;;;;5.17;2.03;;;;;;;;;;10556086;28;20140;-86
2023/04/03 11:21:56;;;;;;;5.20;2.43;;;;;;;;;;10560935;28;20505;-85
2023/04/03 11:26:58;;;;;;;6.47;2.43;;;;;;;;;;10562633;28;20047;-87
2023/04/03 11:32:07;;;;;;;5.50;2.13;;;;;;;;;;10564475;28;20433;-88
2023/04/03 11:37:17;;;;;;;4.30;2.03;;;;;;;;;;10528349;28;20640;-87
2023/04/03 11:42:37;;;;;;;3.80;2.13;;;;;;;;;;10567139;28;20070;-85
2023/04/03 11:47:48;;;;;;;3.83;2.00;;;;;;;;;;10555459;28;20756;-85
2023/04/03 11:52:49;;;;;;;6.13;2.90;;;;;;;;;;10536671;28;20686;-83
2023/04/03 11:58:02;;;;;;;5.40;2.27;;;;;;;;;;10547283;28;20055;-84
2023/04/03 12:03:03;;;;;;;4.60;2.60;;;;;;;;;;10525114;28;20619;-84
2023/04/03 12:08:23;;;;;;;5.87;2.73;;;;;;;;;;10527887;28;20038;-84
2023/04/03 12:13:24;;;;;;;6.07;2.73;;;;;;;;;;10522460;28;20063;-83
2023/04/03 12:18:40;;;;;;;7.60;3.17;;;;;;;;;;10514067;28;20065;-84
2023/04/03 12:24:01;;;;;;;6.57;3.00;;;;;;;;;;10521971;28;20475;-82
2023/04/03 12:29:41;;;;;;;6.00;2.87;;;;;;;;;;10516867;28;20211;-81
2023/04/03 12:35:03;;;;;;;4.73;2.10;;;;;;;;;;10485500;28;20095;-80
2023/04/03 12:40:04;;;;;;;6.33;3.40;;;;;;;;;;10516666;28;20031;-80
2023/04/03 12:45:11;;;;;;;6.17;2.70;;;;;;;;;;10516253;28;20051;-82
2023/04/03 12:50:23;;;;;;;5.10;2.90;;;;;;;;;;10526089;28;20105;-82
2023/04/03 12:55:24;;;;;;;5.37;3.07;;;;;;;;;;10521425;28;20091;-83
2023/04/03 13:00:26;;;;;;;4.60;2.70;;;;;;;;;;10520359;28;20093;-79
2023/04/03 13:05:27;;;;;;;3.47;2.47;;;;;;;;;;10525756;28;20071;-82
2023/04/03 13:10:29;;;;;;;6.97;3.03;;;;;;;;;;10529607;28;20032;-80
2023/04/03 13:15:40;;;;;;;6.27;2.83;;;;;;;;;;10530510;28;20093;-81
2023/04/03 13:20:41;;;;;;;5.33;3.10;;;;;;;;;;10526741;28;20035;-79
2023/04/03 13:25:44;;;;;;;5.57;3.37;;;;;;;;;;10531537;28;20123;-81
2023/04/03 13:30:57;;;;;;;6.03;3.37;;;;;;;;;;10531871;28;20032;-80
2023/04/03 13:36:07;;;;;;;5.53;3.03;;;;;;;;;;10514545;28;20032;-80
2023/04/03 13:41:25;;;;;;;6.27;2.90;;;;;;;;;;10526359;28;20028;-80
2023/04/03 13:46:28;;;;;;;6.50;3.10;;;;;;;;;;10525795;28;20043;-83
2023/04/03 13:51:30;;;;;;;5.93;2.70;;;;;;;;;;10565123;28;20580;-82
2023/04/03 13:56:33;;;;;;;5.30;3.10;;;;;;;;;;10522574;28;20058;-81
2023/04/03 14:01:45;;;;;;;8.53;3.80;;;;;;;;;;10551706;28;20039;-81
2023/04/03 14:06:46;;;;;;;6.60;2.47;;;;;;;;;;10541566;28;20598;-82
2023/04/03 14:11:48;;;;;;;5.20;2.63;;;;;;;;;;10549487;28;20028;-78
2023/04/03 14:16:54;;;;;;;5.50;2.50;;;;;;;;;;10555509;27;20040;-83
2023/04/03 14:21:56;;;;;;;5.23;2.30;;;;;;;;;;10552095;28;20063;-84
2023/04/03 14:26:57;;;;;;;6.33;4.17;;;;;;;;;;10550756;28;20044;-81
2023/04/03 14:31:58;;;;;;;5.50;2.70;;;;;;;;;;10556289;28;20433;-80
2023/04/03 14:36:59;;;;;;;6.73;2.67;;;;;;;;;;10538498;28;20086;-81
2023/04/03 14:42:00;;;;;;;5.53;3.20;;;;;;;;;;10548758;28;20521;-81
2023/04/03 14:47:02;;;;;;;4.80;2.70;;;;;;;;;;10562487;28;20166;-81
2023/04/03 14:52:03;;;;;;;5.60;2.40;;;;;;;;;;10557467;28;20020;-82
2023/04/03 14:57:09;;;;;;;9.67;3.97;;;;;;;;;;10516274;28;20048;-86
2023/04/03 15:02:29;;;;;;;43.50;19.60;;;;;;;;;;10529856;28;20471;-84
2023/04/03 15:07:31;;;;;;;4.70;2.60;;;;;;;;;;10520672;28;20181;-84
2023/04/03 15:12:32;;;;;;;58.17;50.37;;;;;;;;;;10525901;28;20152;-82
2023/04/03 15:17:34;;;;;;;9.23;4.77;;;;;;;;;;10528883;28;20034;-82
2023/04/03 15:22:35;;;;;;;8.03;3.93;;;;;;;;;;10524619;28;20047;-81
2023/04/03 15:27:37;;;;;;;22.33;14.53;;;;;;;;;;10518297;28;20123;-82
2023/04/03 15:32:38;;;;;;;6.53;3.73;;;;;;;;;;10525587;28;20060;-82
2023/04/03 15:37:39;;;;;;;8.30;3.43;;;;;;;;;;10529578;28;20110;-82
2023/04/03 15:42:40;;;;;;;10.67;5.63;;;;;;;;;;10527759;28;20036;-82
2023/04/03 15:47:42;;;;;;;12.60;5.97;;;;;;;;;;10525505;28;20387;-81
2023/04/03 15:52:43;;;;;;;8.83;3.17;;;;;;;;;;10525078;28;20040;-81
2023/04/03 15:57:47;;;;;;;5.37;3.10;;;;;;;;;;10507676;28;20089;-86
2023/04/03 16:02:51;;;;;;;9.87;3.73;;;;;;;;;;10526109;28;20124;-85
2023/04/03 16:07:52;;;;;;;9.63;4.43;;;;;;;;;;10515208;28;20052;-86
2023/04/03 16:12:53;;;;;;;6.23;2.80;;;;;;;;;;10521221;28;20695;-86
2023/04/03 16:17:54;;;;;;;6.00;2.33;;;;;;;;;;10522474;28;20035;-86
2023/04/03 16:22:56;;;;;;;6.17;2.80;;;;;;;;;;10514808;28;20028;-86
2023/04/03 16:27:57;;;;;;;7.60;3.13;;;;;;;;;;10513405;28;20046;-86
2023/04/03 16:32:58;;;;;;;6.57;3.63;;;;;;;;;;10511010;28;20466;-87
2023/04/03 16:38:00;;;;;;;8.83;3.40;;;;;;;;;;10521240;28;20052;-87
2023/04/03 16:43:02;;;;;;;6.17;2.80;;;;;;;;;;10520153;28;20032;-85
2023/04/03 16:48:03;;;;;;;10.20;3.73;;;;;;;;;;10518916;28;20101;-86
2023/04/03 16:53:05;;;;;;;7.50;3.07;;;;;;;;;;10537050;28;20028;-86
2023/04/03 16:58:06;;;;;;;7.07;2.60;;;;;;;;;;10531548;28;20024;-85
2023/04/03 17:03:07;;;;;;;4.37;2.23;;;;;;;;;;10541568;28;20071;-86
2023/04/03 17:08:08;;;;;;;6.50;2.80;;;;;;;;;;10555223;28;20543;-87
2023/04/03 17:13:09;;;;;;;6.00;2.70;;;;;;;;;;10527316;28;20040;-85
2023/04/03 17:18:10;;;;;;;8.40;3.07;;;;;;;;;;10540839;28;20049;-87
2023/04/03 17:23:11;;;;;;;5.93;2.37;;;;;;;;;;10559526;28;20035;-84
2023/04/03 17:28:13;;;;;;;5.27;2.70;;;;;;;;;;10553931;28;20048;-85
2023/04/03 17:33:14;;;;;;;6.77;3.17;;;;;;;;;;10535471;28;20118;-86
2023/04/03 17:38:24;;;;;;;5.93;2.90;;;;;;;;;;10537469;28;20825;-87
2023/04/03 17:43:25;;;;;;;6.03;3.00;;;;;;;;;;10544673;28;20034;-84
2023/04/03 17:48:26;;;;;;;5.67;3.07;;;;;;;;;;10540886;28;20050;-89
2023/04/03 17:53:27;;;;;;;9.97;3.87;;;;;;;;;;10565997;28;20050;-84
2023/04/03 17:58:29;;;;;;;10.50;4.03;;;;;;;;;;10566748;28;20027;-84
2023/04/03 18:03:30;;;;;;;10.83;4.60;;;;;;;;;;10551768;28;20867;-88
2023/04/03 18:08:33;;;;;;;10.97;4.47;;;;;;;;;;10542869;28;20494;-84
2023/04/03 18:13:36;;;;;;;10.43;4.07;;;;;;;;;;10537408;28;20044;-86
2023/04/03 18:18:37;;;;;;;9.77;3.97;;;;;;;;;;10525727;28;20040;-85
2023/04/03 18:23:39;;;;;;;12.70;5.40;;;;;;;;;;10527814;28;20031;-87
2023/04/03 18:28:42;;;;;;;10.30;3.90;;;;;;;;;;10521900;28;20068;-87
2023/04/03 18:33:43;;;;;;;11.80;4.67;;;;;;;;;;10534831;28;20036;-87
2023/04/03 18:38:44;;;;;;;11.13;4.60;;;;;;;;;;10528909;28;20452;-87
2023/04/03 18:43:49;;;;;;;11.53;3.77;;;;;;;;;;10519454;28;20039;-89
2023/04/03 18:49:02;;;;;;;10.30;4.17;;;;;;;;;;10516530;28;20495;-88
2023/04/03 18:54:03;;;;;;;12.40;4.10;;;;;;;;;;10519657;28;20135;-88
2023/04/03 18:59:04;;;;;;;7.80;4.40;;;;;;;;;;10530013;28;20031;-88
2023/04/03 19:04:05;;;;;;;11.33;4.97;;;;;;;;;;10528276;28;20506;-88
2023/04/03 19:09:07;;;;;;;10.50;5.33;;;;;;;;;;10514552;28;20389;-88
2023/04/03 19:14:08;;;;;;;10.53;4.07;;;;;;;;;;10524962;28;20028;-87
2023/04/03 19:19:09;;;;;;;11.63;4.77;;;;;;;;;;10516140;28;20127;-86
2023/04/03 19:24:11;;;;;;;11.73;5.33;;;;;;;;;;10527927;28;20039;-86
2023/04/03 19:29:12;;;;;;;12.77;5.23;;;;;;;;;;10556985;28;20097;-87
2023/04/03 19:34:13;;;;;;;11.10;5.60;;;;;;;;;;10539946;28;20029;-87
2023/04/03 19:39:14;;;;;;;12.47;5.53;;;;;;;;;;10553683;28;20084;-88
2023/04/03 19:44:15;;;;;;;13.87;5.53;;;;;;;;;;10545991;28;20035;-85
2023/04/03 19:49:16;;;;;;;11.67;5.03;;;;;;;;;;10530802;28;20551;-85
2023/04/03 19:54:17;;;;;;;14.20;6.13;;;;;;;;;;10549853;28;20055;-86
2023/04/03 19:59:18;;;;;;;18.13;6.87;;;;;;;;;;10549782;28;20041;-85
2023/04/03 20:04:19;;;;;;;15.57;6.50;;;;;;;;;;10562535;28;20039;-87
2023/04/03 20:09:21;;;;;;;12.60;5.90;;;;;;;;;;10550580;28;20043;-87
2023/04/03 20:14:22;;;;;;;12.20;6.13;;;;;;;;;;10558009;28;20032;-86
2023/04/03 20:19:25;;;;;;;16.33;5.60;;;;;;;;;;10527233;28;20380;-85
2023/04/03 20:24:27;;;;;;;12.93;6.03;;;;;;;;;;10557162;28;20361;-86
2023/04/03 20:29:28;;;;;;;16.63;7.23;;;;;;;;;;10565251;28;20047;-86
2023/04/03 20:34:29;;;;;;;15.23;6.47;;;;;;;;;;10550966;28;20028;-86
2023/04/03 20:39:30;;;;;;;18.03;6.40;;;;;;;;;;10559550;28;20043;-87
2023/04/03 20:44:31;;;;;;;15.07;6.23;;;;;;;;;;10535178;28;20028;-86
2023/04/03 20:49:32;;;;;;;16.53;6.80;;;;;;;;;;10545790;28;20050;-86
2023/04/03 20:54:33;;;;;;;16.47;6.50;;;;;;;;;;10563720;28;20404;-87
2023/04/03 20:59:35;;;;;;;18.97;8.53;;;;;;;;;;10561327;28;20027;-86
2023/04/03 21:04:41;;;;;;;15.37;6.40;;;;;;;;;;10552927;28;20038;-88
2023/04/03 21:10:00;;;;;;;19.17;7.80;;;;;;;;;;10537984;28;20749;-86
2023/04/03 21:15:20;;;;;;;19.57;7.73;;;;;;;;;;10545994;28;20051;-86
2023/04/03 21:20:21;;;;;;;19.67;7.37;;;;;;;;;;10532796;28;20081;-87
2023/04/03 21:25:22;;;;;;;20.40;7.67;;;;;;;;;;10558342;28;20032;-86
2023/04/03 21:30:24;;;;;;;18.53;7.40;;;;;;;;;;10555265;28;20051;-87
2023/04/03 21:35:26;;;;;;;19.53;8.97;;;;;;;;;;10573530;28;20399;-88
2023/04/03 21:40:27;;;;;;;18.93;8.70;;;;;;;;;;10557266;28;20645;-86
2023/04/03 21:45:28;;;;;;;16.00;7.83;;;;;;;;;;10564510;28;20039;-88
2023/04/03 21:50:29;;;;;;;14.90;7.17;;;;;;;;;;10539344;28;20043;-85
2023/04/03 21:55:30;;;;;;;18.07;7.70;;;;;;;;;;10532301;28;20084;-86
2023/04/03 22:00:31;;;;;;;17.33;8.50;;;;;;;;;;10563733;28;20028;-86
2023/04/03 22:05:34;;;;;;;15.50;7.40;;;;;;;;;;10560633;28;20024;-86
2023/04/03 22:10:39;;;;;;;17.87;8.20;;;;;;;;;;10567341;28;20047;-87
2023/04/03 22:15:46;;;;;;;16.90;7.30;;;;;;;;;;10558867;28;20032;-86
2023/04/03 22:20:47;;;;;;;16.40;7.87;;;;;;;;;;10561384;28;20054;-85
2023/04/03 22:26:04;;;;;;;16.60;8.07;;;;;;;;;;10560942;28;20553;-87
2023/04/03 22:31:06;;;;;;;15.53;7.07;;;;;;;;;;10558486;28;20544;-86
2023/04/03 22:36:09;;;;;;;19.53;7.73;;;;;;;;;;10566850;28;20032;-87
2023/04/03 22:41:11;;;;;;;14.43;6.43;;;;;;;;;;10555381;28;20032;-88
2023/04/03 22:46:12;;;;;;;15.67;7.07;;;;;;;;;;10536807;28;20039;-87
2023/04/03 22:51:13;;;;;;;18.23;6.40;;;;;;;;;;10559902;28;20032;-85
2023/04/03 22:56:14;;;;;;;19.13;7.33;;;;;;;;;;10534096;28;20058;-88
2023/04/03 23:01:15;;;;;;;17.87;6.77;;;;;;;;;;10554622;28;20032;-87
2023/04/03 23:06:16;;;;;;;17.93;8.00;;;;;;;;;;10560064;28;20059;-86
2023/04/03 23:11:17;;;;;;;14.50;7.17;;;;;;;;;;10562946;28;20019;-87
2023/04/03 23:16:18;;;;;;;19.97;7.17;;;;;;;;;;10556585;28;20390;-87
2023/04/03 23:21:19;;;;;;;15.53;6.40;;;;;;;;;;10559013;28;20123;-88
2023/04/03 23:26:21;;;;;;;14.30;6.80;;;;;;;;;;10550565;28;20031;-87
2023/04/03 23:31:22;;;;;;;14.47;5.80;;;;;;;;;;10536676;28;20502;-87
2023/04/03 23:36:23;;;;;;;13.93;6.03;;;;;;;;;;10548763;28;20147;-86
2023/04/03 23:41:24;;;;;;;18.33;6.20;;;;;;;;;;10544372;28;20107;-88
2023/04/03 23:46:25;;;;;;;15.73;6.03;;;;;;;;;;10544109;28;20387;-87
2023/04/03 23:51:26;;;;;;;16.20;7.33;;;;;;;;;;10556551;28;20028;-89
2023/04/03 23:56:28;;;;;;;14.07;6.80;;;;;;;;;;10545874;28;20043;-89
